sensor_id;sensor_type;location;lat;lon;timestamp;P1;durP1;ratioP1;P2;durP2;ratioP2
61960;SDS011;47923;42.506;24.192;2023-07-13T00:00:44;11.25;;;7.82;;
61960;SDS011;47923;42.506;24.192;2023-07-13T00:03:10;9.70;;;7.28;;
61960;SDS011;47923;42.506;24.192;2023-07-13T00:05:38;11.05;;;7.97;;
61960;SDS011;47923;42.506;24.192;2023-07-13T00:08:04;10.38;;;7.53;;
61960;SDS011;47923;42.506;24.192;2023-07-13T00:10:30;10.02;;;7.47;;
61960;SDS011;47923;42.506;24.192;2023-07-13T00:13:05;10.80;;;8.07;;
61960;SDS011;47923;42.506;24.192;2023-07-13T00:15:34;10.88;;;7.28;;
61960;SDS011;47923;42.506;24.192;2023-07-13T00:18:01;9.80;;;6.90;;
61960;SDS011;47923;42.506;24.192;2023-07-13T00:20:27;9.43;;;6.75;;
61960;SDS011;47923;42.506;24.192;2023-07-13T00:22:55;11.57;;;6.82;;
61960;SDS011;47923;42.506;24.192;2023-07-13T00:25:24;11.60;;;6.10;;
61960;SDS011;47923;42.506;24.192;2023-07-13T00:27:53;9.70;;;6.38;;
61960;SDS011;47923;42.506;24.192;2023-07-13T00:30:22;12.85;;;6.22;;
61960;SDS011;47923;42.506;24.192;2023-07-13T00:32:48;9.80;;;7.53;;
61960;SDS011;47923;42.506;24.192;2023-07-13T00:35:14;10.02;;;8.40;;
61960;SDS011;47923;42.506;24.192;2023-07-13T00:37:43;11.23;;;7.53;;
61960;SDS011;47923;42.506;24.192;2023-07-13T00:40:10;10.55;;;8.30;;
61960;SDS011;47923;42.506;24.192;2023-07-13T00:42:38;11.90;;;7.60;;
61960;SDS011;47923;42.506;24.192;2023-07-13T00:47:39;9.70;;;7.60;;
61960;SDS011;47923;42.506;24.192;2023-07-13T00:50:13;10.75;;;7.95;;
61960;SDS011;47923;42.506;24.192;2023-07-13T00:52:45;11.82;;;7.40;;
61960;SDS011;47923;42.506;24.192;2023-07-13T00:55:18;11.10;;;7.95;;
61960;SDS011;47923;42.506;24.192;2023-07-13T00:57:45;10.88;;;7.50;;
61960;SDS011;47923;42.506;24.192;2023-07-13T01:00:11;10.75;;;7.60;;
61960;SDS011;47923;42.506;24.192;2023-07-13T01:02:41;9.88;;;7.18;;
61960;SDS011;47923;42.506;24.192;2023-07-13T01:05:13;9.05;;;6.95;;
61960;SDS011;47923;42.506;24.192;2023-07-13T01:07:40;10.63;;;8.13;;
61960;SDS011;47923;42.506;24.192;2023-07-13T01:10:26;8.95;;;6.75;;
61960;SDS011;47923;42.506;24.192;2023-07-13T01:12:54;9.60;;;7.10;;
61960;SDS011;47923;42.506;24.192;2023-07-13T01:15:34;9.77;;;7.47;;
61960;SDS011;47923;42.506;24.192;2023-07-13T01:18:07;11.20;;;7.70;;
61960;SDS011;47923;42.506;24.192;2023-07-13T01:20:39;10.20;;;7.45;;
61960;SDS011;47923;42.506;24.192;2023-07-13T01:23:09;11.55;;;8.40;;
61960;SDS011;47923;42.506;24.192;2023-07-13T01:25:39;10.65;;;7.90;;
61960;SDS011;47923;42.506;24.192;2023-07-13T01:28:08;11.57;;;7.93;;
61960;SDS011;47923;42.506;24.192;2023-07-13T01:30:36;10.93;;;7.72;;
61960;SDS011;47923;42.506;24.192;2023-07-13T01:33:03;11.40;;;8.23;;
61960;SDS011;47923;42.506;24.192;2023-07-13T01:35:29;11.95;;;7.80;;
61960;SDS011;47923;42.506;24.192;2023-07-13T01:38:00;10.80;;;7.93;;
61960;SDS011;47923;42.506;24.192;2023-07-13T01:40:27;11.52;;;6.90;;
61960;SDS011;47923;42.506;24.192;2023-07-13T01:42:53;9.32;;;6.68;;
61960;SDS011;47923;42.506;24.192;2023-07-13T01:45:21;11.32;;;7.32;;
61960;SDS011;47923;42.506;24.192;2023-07-13T01:47:47;11.77;;;7.82;;
61960;SDS011;47923;42.506;24.192;2023-07-13T01:50:15;10.75;;;7.85;;
61960;SDS011;47923;42.506;24.192;2023-07-13T01:52:40;11.00;;;7.80;;
61960;SDS011;47923;42.506;24.192;2023-07-13T01:55:09;11.95;;;8.00;;
61960;SDS011;47923;42.506;24.192;2023-07-13T01:57:34;11.50;;;8.80;;
61960;SDS011;47923;42.506;24.192;2023-07-13T02:00:02;10.93;;;8.25;;
61960;SDS011;47923;42.506;24.192;2023-07-13T02:02:32;10.38;;;7.63;;
61960;SDS011;47923;42.506;24.192;2023-07-13T02:05:00;9.32;;;7.28;;
61960;SDS011;47923;42.506;24.192;2023-07-13T02:07:28;10.10;;;7.90;;
61960;SDS011;47923;42.506;24.192;2023-07-13T02:09:54;11.02;;;8.63;;
61960;SDS011;47923;42.506;24.192;2023-07-13T02:12:19;11.13;;;8.23;;
61960;SDS011;47923;42.506;24.192;2023-07-13T02:14:45;13.15;;;8.35;;
61960;SDS011;47923;42.506;24.192;2023-07-13T02:17:11;12.50;;;8.80;;
61960;SDS011;47923;42.506;24.192;2023-07-13T02:19:38;10.43;;;7.63;;
61960;SDS011;47923;42.506;24.192;2023-07-13T02:22:09;13.60;;;9.52;;
61960;SDS011;47923;42.506;24.192;2023-07-13T02:24:35;12.15;;;9.38;;
61960;SDS011;47923;42.506;24.192;2023-07-13T02:27:00;12.90;;;9.70;;
61960;SDS011;47923;42.506;24.192;2023-07-13T02:29:26;14.07;;;9.60;;
61960;SDS011;47923;42.506;24.192;2023-07-13T02:31:51;11.27;;;9.00;;
61960;SDS011;47923;42.506;24.192;2023-07-13T02:34:17;14.02;;;9.60;;
61960;SDS011;47923;42.506;24.192;2023-07-13T02:36:45;12.35;;;9.20;;
61960;SDS011;47923;42.506;24.192;2023-07-13T02:39:13;12.00;;;9.15;;
61960;SDS011;47923;42.506;24.192;2023-07-13T02:41:41;10.52;;;7.43;;
61960;SDS011;47923;42.506;24.192;2023-07-13T02:44:11;12.88;;;8.85;;
61960;SDS011;47923;42.506;24.192;2023-07-13T02:46:38;13.32;;;9.15;;
61960;SDS011;47923;42.506;24.192;2023-07-13T02:49:04;11.40;;;9.07;;
61960;SDS011;47923;42.506;24.192;2023-07-13T02:51:30;13.52;;;9.45;;
61960;SDS011;47923;42.506;24.192;2023-07-13T02:54:01;13.13;;;8.63;;
61960;SDS011;47923;42.506;24.192;2023-07-13T02:56:33;11.68;;;8.55;;
61960;SDS011;47923;42.506;24.192;2023-07-13T02:58:58;13.60;;;9.10;;
61960;SDS011;47923;42.506;24.192;2023-07-13T03:01:24;10.60;;;8.48;;
61960;SDS011;47923;42.506;24.192;2023-07-13T03:03:51;11.18;;;9.05;;
61960;SDS011;47923;42.506;24.192;2023-07-13T03:06:20;10.93;;;8.75;;
61960;SDS011;47923;42.506;24.192;2023-07-13T03:08:55;11.20;;;8.30;;
61960;SDS011;47923;42.506;24.192;2023-07-13T03:11:21;11.07;;;8.10;;
61960;SDS011;47923;42.506;24.192;2023-07-13T03:13:52;12.77;;;8.77;;
61960;SDS011;47923;42.506;24.192;2023-07-13T03:16:22;11.10;;;8.00;;
61960;SDS011;47923;42.506;24.192;2023-07-13T03:18:51;11.85;;;8.60;;
61960;SDS011;47923;42.506;24.192;2023-07-13T03:21:19;10.32;;;8.15;;
61960;SDS011;47923;42.506;24.192;2023-07-13T03:23:47;11.40;;;7.90;;
61960;SDS011;47923;42.506;24.192;2023-07-13T03:26:22;12.80;;;8.40;;
61960;SDS011;47923;42.506;24.192;2023-07-13T03:28:50;11.73;;;8.02;;
61960;SDS011;47923;42.506;24.192;2023-07-13T03:31:17;9.98;;;7.60;;
61960;SDS011;47923;42.506;24.192;2023-07-13T03:33:45;12.73;;;8.63;;
61960;SDS011;47923;42.506;24.192;2023-07-13T03:36:18;11.73;;;7.45;;
61960;SDS011;47923;42.506;24.192;2023-07-13T03:38:49;12.02;;;7.55;;
61960;SDS011;47923;42.506;24.192;2023-07-13T03:41:17;9.88;;;7.32;;
61960;SDS011;47923;42.506;24.192;2023-07-13T03:43:45;10.98;;;6.95;;
61960;SDS011;47923;42.506;24.192;2023-07-13T03:46:13;12.23;;;7.75;;
61960;SDS011;47923;42.506;24.192;2023-07-13T03:48:40;10.07;;;6.97;;
61960;SDS011;47923;42.506;24.192;2023-07-13T03:51:10;10.43;;;6.55;;
61960;SDS011;47923;42.506;24.192;2023-07-13T03:53:38;15.05;;;8.48;;
61960;SDS011;47923;42.506;24.192;2023-07-13T03:56:06;12.60;;;6.63;;
61960;SDS011;47923;42.506;24.192;2023-07-13T03:58:36;14.90;;;7.47;;
61960;SDS011;47923;42.506;24.192;2023-07-13T04:01:06;10.65;;;7.00;;
61960;SDS011;47923;42.506;24.192;2023-07-13T04:03:33;11.27;;;6.07;;
61960;SDS011;47923;42.506;24.192;2023-07-13T04:06:00;12.93;;;6.75;;
61960;SDS011;47923;42.506;24.192;2023-07-13T04:08:29;13.27;;;7.15;;
61960;SDS011;47923;42.506;24.192;2023-07-13T04:10:57;14.00;;;6.45;;
61960;SDS011;47923;42.506;24.192;2023-07-13T04:13:23;9.82;;;5.93;;
61960;SDS011;47923;42.506;24.192;2023-07-13T04:15:49;10.15;;;5.82;;
61960;SDS011;47923;42.506;24.192;2023-07-13T04:18:16;10.65;;;6.00;;
61960;SDS011;47923;42.506;24.192;2023-07-13T04:20:41;12.02;;;5.30;;
61960;SDS011;47923;42.506;24.192;2023-07-13T04:23:07;10.15;;;5.55;;
61960;SDS011;47923;42.506;24.192;2023-07-13T04:25:32;11.30;;;6.10;;
61960;SDS011;47923;42.506;24.192;2023-07-13T04:27:58;10.35;;;6.40;;
61960;SDS011;47923;42.506;24.192;2023-07-13T04:30:24;12.30;;;6.05;;
61960;SDS011;47923;42.506;24.192;2023-07-13T04:32:50;11.35;;;5.95;;
61960;SDS011;47923;42.506;24.192;2023-07-13T04:35:17;12.35;;;6.05;;
61960;SDS011;47923;42.506;24.192;2023-07-13T04:37:45;14.18;;;5.78;;
61960;SDS011;47923;42.506;24.192;2023-07-13T04:40:12;11.00;;;6.72;;
61960;SDS011;47923;42.506;24.192;2023-07-13T04:42:38;12.45;;;6.15;;
61960;SDS011;47923;42.506;24.192;2023-07-13T04:45:04;10.20;;;6.13;;
61960;SDS011;47923;42.506;24.192;2023-07-13T04:47:31;8.98;;;6.05;;
61960;SDS011;47923;42.506;24.192;2023-07-13T04:49:57;9.77;;;6.00;;
61960;SDS011;47923;42.506;24.192;2023-07-13T04:52:23;13.00;;;5.72;;
61960;SDS011;47923;42.506;24.192;2023-07-13T04:54:49;9.15;;;5.32;;
61960;SDS011;47923;42.506;24.192;2023-07-13T04:57:14;10.45;;;5.70;;
61960;SDS011;47923;42.506;24.192;2023-07-13T04:59:40;9.98;;;6.03;;
61960;SDS011;47923;42.506;24.192;2023-07-13T05:02:05;8.95;;;5.32;;
61960;SDS011;47923;42.506;24.192;2023-07-13T05:04:31;12.75;;;5.60;;
61960;SDS011;47923;42.506;24.192;2023-07-13T05:06:57;7.40;;;5.20;;
61960;SDS011;47923;42.506;24.192;2023-07-13T05:09:22;10.52;;;5.65;;
61960;SDS011;47923;42.506;24.192;2023-07-13T05:11:48;10.70;;;6.25;;
61960;SDS011;47923;42.506;24.192;2023-07-13T05:14:13;8.05;;;5.45;;
61960;SDS011;47923;42.506;24.192;2023-07-13T05:16:40;7.53;;;5.00;;
61960;SDS011;47923;42.506;24.192;2023-07-13T05:19:05;10.07;;;5.25;;
61960;SDS011;47923;42.506;24.192;2023-07-13T05:21:31;10.48;;;5.22;;
61960;SDS011;47923;42.506;24.192;2023-07-13T05:23:57;11.63;;;5.72;;
61960;SDS011;47923;42.506;24.192;2023-07-13T05:26:22;10.52;;;5.43;;
61960;SDS011;47923;42.506;24.192;2023-07-13T05:28:47;8.07;;;5.03;;
61960;SDS011;47923;42.506;24.192;2023-07-13T05:31:13;13.02;;;5.97;;
61960;SDS011;47923;42.506;24.192;2023-07-13T05:33:39;12.68;;;5.80;;
61960;SDS011;47923;42.506;24.192;2023-07-13T05:36:04;12.88;;;6.03;;
61960;SDS011;47923;42.506;24.192;2023-07-13T05:38:30;12.82;;;5.75;;
61960;SDS011;47923;42.506;24.192;2023-07-13T05:40:56;13.30;;;5.68;;
61960;SDS011;47923;42.506;24.192;2023-07-13T05:43:22;12.02;;;5.53;;
61960;SDS011;47923;42.506;24.192;2023-07-13T05:45:48;10.73;;;5.05;;
61960;SDS011;47923;42.506;24.192;2023-07-13T05:48:16;8.55;;;4.78;;
61960;SDS011;47923;42.506;24.192;2023-07-13T05:50:41;8.57;;;5.00;;
61960;SDS011;47923;42.506;24.192;2023-07-13T05:53:07;8.52;;;4.30;;
61960;SDS011;47923;42.506;24.192;2023-07-13T05:55:33;8.07;;;4.25;;
61960;SDS011;47923;42.506;24.192;2023-07-13T05:57:59;8.13;;;4.07;;
61960;SDS011;47923;42.506;24.192;2023-07-13T06:00:25;7.65;;;4.10;;
61960;SDS011;47923;42.506;24.192;2023-07-13T06:02:51;11.40;;;4.80;;
61960;SDS011;47923;42.506;24.192;2023-07-13T06:05:16;9.65;;;4.50;;
61960;SDS011;47923;42.506;24.192;2023-07-13T06:07:42;7.05;;;4.32;;
61960;SDS011;47923;42.506;24.192;2023-07-13T06:10:07;9.23;;;4.20;;
61960;SDS011;47923;42.506;24.192;2023-07-13T06:12:33;7.38;;;3.92;;
61960;SDS011;47923;42.506;24.192;2023-07-13T06:14:59;6.75;;;3.78;;
61960;SDS011;47923;42.506;24.192;2023-07-13T06:17:24;9.20;;;3.75;;
61960;SDS011;47923;42.506;24.192;2023-07-13T06:19:49;8.77;;;4.20;;
61960;SDS011;47923;42.506;24.192;2023-07-13T06:22:15;8.82;;;4.18;;
61960;SDS011;47923;42.506;24.192;2023-07-13T06:24:40;8.32;;;4.10;;
61960;SDS011;47923;42.506;24.192;2023-07-13T06:27:06;7.88;;;4.35;;
61960;SDS011;47923;42.506;24.192;2023-07-13T06:29:31;9.93;;;4.47;;
61960;SDS011;47923;42.506;24.192;2023-07-13T06:31:57;9.90;;;4.68;;
61960;SDS011;47923;42.506;24.192;2023-07-13T06:34:25;8.38;;;4.90;;
61960;SDS011;47923;42.506;24.192;2023-07-13T06:36:54;9.20;;;4.68;;
61960;SDS011;47923;42.506;24.192;2023-07-13T06:39:26;7.00;;;4.00;;
61960;SDS011;47923;42.506;24.192;2023-07-13T06:41:55;10.60;;;5.00;;
61960;SDS011;47923;42.506;24.192;2023-07-13T06:44:34;8.38;;;4.78;;
61960;SDS011;47923;42.506;24.192;2023-07-13T06:47:02;8.23;;;4.85;;
61960;SDS011;47923;42.506;24.192;2023-07-13T06:49:33;8.45;;;5.10;;
61960;SDS011;47923;42.506;24.192;2023-07-13T06:52:01;8.45;;;4.50;;
61960;SDS011;47923;42.506;24.192;2023-07-13T06:54:37;9.40;;;4.35;;
61960;SDS011;47923;42.506;24.192;2023-07-13T06:57:12;7.45;;;4.65;;
61960;SDS011;47923;42.506;24.192;2023-07-13T06:59:40;8.63;;;4.80;;
61960;SDS011;47923;42.506;24.192;2023-07-13T07:02:09;8.77;;;4.47;;
61960;SDS011;47923;42.506;24.192;2023-07-13T07:04:36;6.68;;;4.22;;
61960;SDS011;47923;42.506;24.192;2023-07-13T07:07:08;6.40;;;4.25;;
61960;SDS011;47923;42.506;24.192;2023-07-13T07:09:49;9.73;;;4.57;;
61960;SDS011;47923;42.506;24.192;2023-07-13T07:12:18;6.53;;;4.30;;
61960;SDS011;47923;42.506;24.192;2023-07-13T07:14:43;7.50;;;4.22;;
61960;SDS011;47923;42.506;24.192;2023-07-13T07:20:06;7.93;;;4.35;;
61960;SDS011;47923;42.506;24.192;2023-07-13T07:22:34;7.78;;;4.18;;
61960;SDS011;47923;42.506;24.192;2023-07-13T07:25:02;7.82;;;4.65;;
61960;SDS011;47923;42.506;24.192;2023-07-13T07:27:49;10.38;;;4.18;;
61960;SDS011;47923;42.506;24.192;2023-07-13T07:33:08;8.90;;;4.17;;
61960;SDS011;47923;42.506;24.192;2023-07-13T07:35:43;8.10;;;4.50;;
61960;SDS011;47923;42.506;24.192;2023-07-13T07:38:23;6.30;;;3.70;;
61960;SDS011;47923;42.506;24.192;2023-07-13T07:40:52;6.38;;;3.97;;
61960;SDS011;47923;42.506;24.192;2023-07-13T07:43:26;7.03;;;3.72;;
61960;SDS011;47923;42.506;24.192;2023-07-13T07:45:53;8.43;;;3.10;;
61960;SDS011;47923;42.506;24.192;2023-07-13T07:48:24;9.43;;;3.27;;
61960;SDS011;47923;42.506;24.192;2023-07-13T07:50:55;6.13;;;3.13;;
61960;SDS011;47923;42.506;24.192;2023-07-13T07:53:26;5.93;;;2.95;;
61960;SDS011;47923;42.506;24.192;2023-07-13T07:55:53;8.85;;;3.40;;
61960;SDS011;47923;42.506;24.192;2023-07-13T07:58:35;8.82;;;3.17;;
61960;SDS011;47923;42.506;24.192;2023-07-13T08:01:12;6.55;;;3.20;;
61960;SDS011;47923;42.506;24.192;2023-07-13T08:04:03;5.28;;;2.83;;
61960;SDS011;47923;42.506;24.192;2023-07-13T08:06:34;6.45;;;3.00;;
61960;SDS011;47923;42.506;24.192;2023-07-13T08:09:08;7.25;;;2.90;;
61960;SDS011;47923;42.506;24.192;2023-07-13T08:11:51;5.53;;;2.63;;
61960;SDS011;47923;42.506;24.192;2023-07-13T08:14:22;8.60;;;3.00;;
61960;SDS011;47923;42.506;24.192;2023-07-13T08:17:12;4.60;;;2.80;;
61960;SDS011;47923;42.506;24.192;2023-07-13T08:20:12;8.80;;;3.00;;
61960;SDS011;47923;42.506;24.192;2023-07-13T08:22:50;4.40;;;2.60;;
61960;SDS011;47923;42.506;24.192;2023-07-13T08:25:18;8.73;;;3.53;;
61960;SDS011;47923;42.506;24.192;2023-07-13T08:28:02;7.80;;;3.20;;
61960;SDS011;47923;42.506;24.192;2023-07-13T08:30:34;5.30;;;2.97;;
61960;SDS011;47923;42.506;24.192;2023-07-13T08:33:06;5.05;;;2.97;;
61960;SDS011;47923;42.506;24.192;2023-07-13T08:35:42;7.15;;;2.88;;
61960;SDS011;47923;42.506;24.192;2023-07-13T08:41:14;8.65;;;2.90;;
61960;SDS011;47923;42.506;24.192;2023-07-13T08:43:52;7.82;;;3.53;;
61960;SDS011;47923;42.506;24.192;2023-07-13T08:46:39;46.60;;;5.50;;
61960;SDS011;47923;42.506;24.192;2023-07-13T08:49:19;6.53;;;3.13;;
61960;SDS011;47923;42.506;24.192;2023-07-13T08:52:07;4.60;;;2.83;;
61960;SDS011;47923;42.506;24.192;2023-07-13T08:54:45;7.07;;;3.15;;
61960;SDS011;47923;42.506;24.192;2023-07-13T08:57:19;7.88;;;3.63;;
61960;SDS011;47923;42.506;24.192;2023-07-13T09:00:00;7.70;;;3.05;;
61960;SDS011;47923;42.506;24.192;2023-07-13T09:02:42;5.70;;;2.90;;
61960;SDS011;47923;42.506;24.192;2023-07-13T09:05:33;7.07;;;3.00;;
61960;SDS011;47923;42.506;24.192;2023-07-13T09:08:19;7.25;;;2.97;;
61960;SDS011;47923;42.506;24.192;2023-07-13T09:11:23;6.43;;;3.10;;
61960;SDS011;47923;42.506;24.192;2023-07-13T09:16:56;5.60;;;2.67;;
61960;SDS011;47923;42.506;24.192;2023-07-13T09:19:27;6.28;;;2.70;;
61960;SDS011;47923;42.506;24.192;2023-07-13T09:21:55;9.95;;;2.90;;
61960;SDS011;47923;42.506;24.192;2023-07-13T09:24:40;5.63;;;2.75;;
61960;SDS011;47923;42.506;24.192;2023-07-13T09:27:22;5.88;;;2.90;;
61960;SDS011;47923;42.506;24.192;2023-07-13T09:33:21;7.28;;;3.08;;
61960;SDS011;47923;42.506;24.192;2023-07-13T09:35:52;5.35;;;3.00;;
61960;SDS011;47923;42.506;24.192;2023-07-13T09:38:27;6.28;;;2.67;;
61960;SDS011;47923;42.506;24.192;2023-07-13T09:46:55;7.78;;;3.10;;
61960;SDS011;47923;42.506;24.192;2023-07-13T09:49:40;7.50;;;2.88;;
61960;SDS011;47923;42.506;24.192;2023-07-13T09:52:15;7.43;;;3.28;;
61960;SDS011;47923;42.506;24.192;2023-07-13T09:54:48;5.25;;;2.70;;
61960;SDS011;47923;42.506;24.192;2023-07-13T09:57:16;5.88;;;3.25;;
61960;SDS011;47923;42.506;24.192;2023-07-13T09:59:48;11.30;;;3.45;;
61960;SDS011;47923;42.506;24.192;2023-07-13T10:04:51;5.45;;;2.83;;
61960;SDS011;47923;42.506;24.192;2023-07-13T10:07:22;4.50;;;2.63;;
61960;SDS011;47923;42.506;24.192;2023-07-13T10:09:51;8.85;;;3.47;;
61960;SDS011;47923;42.506;24.192;2023-07-13T10:12:19;5.57;;;3.25;;
61960;SDS011;47923;42.506;24.192;2023-07-13T10:14:44;6.57;;;2.80;;
61960;SDS011;47923;42.506;24.192;2023-07-13T10:17:11;9.23;;;3.00;;
61960;SDS011;47923;42.506;24.192;2023-07-13T10:19:39;7.40;;;3.30;;
61960;SDS011;47923;42.506;24.192;2023-07-13T10:25:00;7.28;;;3.03;;
61960;SDS011;47923;42.506;24.192;2023-07-13T10:27:29;8.45;;;3.25;;
61960;SDS011;47923;42.506;24.192;2023-07-13T10:30:21;8.27;;;3.20;;
61960;SDS011;47923;42.506;24.192;2023-07-13T10:32:50;8.48;;;2.80;;
61960;SDS011;47923;42.506;24.192;2023-07-13T10:35:18;8.15;;;3.00;;
61960;SDS011;47923;42.506;24.192;2023-07-13T10:38:02;10.95;;;3.35;;
61960;SDS011;47923;42.506;24.192;2023-07-13T10:40:35;8.55;;;2.90;;
61960;SDS011;47923;42.506;24.192;2023-07-13T10:43:06;5.47;;;2.80;;
61960;SDS011;47923;42.506;24.192;2023-07-13T10:45:38;6.80;;;3.05;;
61960;SDS011;47923;42.506;24.192;2023-07-13T10:48:05;10.52;;;3.53;;
61960;SDS011;47923;42.506;24.192;2023-07-13T10:50:37;7.50;;;3.45;;
61960;SDS011;47923;42.506;24.192;2023-07-13T10:53:19;9.25;;;3.53;;
61960;SDS011;47923;42.506;24.192;2023-07-13T10:58:14;8.88;;;3.17;;
61960;SDS011;47923;42.506;24.192;2023-07-13T11:00:46;9.80;;;3.47;;
61960;SDS011;47923;42.506;24.192;2023-07-13T11:03:15;8.07;;;3.78;;
61960;SDS011;47923;42.506;24.192;2023-07-13T11:05:43;7.72;;;3.35;;
61960;SDS011;47923;42.506;24.192;2023-07-13T11:08:16;12.70;;;3.83;;
61960;SDS011;47923;42.506;24.192;2023-07-13T11:10:47;9.48;;;4.30;;
61960;SDS011;47923;42.506;24.192;2023-07-13T11:16:12;10.82;;;3.40;;
61960;SDS011;47923;42.506;24.192;2023-07-13T11:21:26;8.52;;;3.65;;
61960;SDS011;47923;42.506;24.192;2023-07-13T11:26:55;8.60;;;3.65;;
61960;SDS011;47923;42.506;24.192;2023-07-13T11:31:52;7.50;;;3.60;;
61960;SDS011;47923;42.506;24.192;2023-07-13T11:34:27;9.18;;;3.47;;
61960;SDS011;47923;42.506;24.192;2023-07-13T11:36:56;6.45;;;3.47;;
61960;SDS011;47923;42.506;24.192;2023-07-13T11:41:59;6.50;;;3.67;;
61960;SDS011;47923;42.506;24.192;2023-07-13T11:44:28;12.33;;;4.03;;
61960;SDS011;47923;42.506;24.192;2023-07-13T11:46:58;9.23;;;3.72;;
61960;SDS011;47923;42.506;24.192;2023-07-13T11:49:42;12.40;;;4.13;;
61960;SDS011;47923;42.506;24.192;2023-07-13T11:52:16;8.15;;;3.50;;
61960;SDS011;47923;42.506;24.192;2023-07-13T11:54:51;9.43;;;3.60;;
61960;SDS011;47923;42.506;24.192;2023-07-13T11:57:28;10.70;;;3.70;;
61960;SDS011;47923;42.506;24.192;2023-07-13T12:00:00;7.70;;;3.72;;
61960;SDS011;47923;42.506;24.192;2023-07-13T12:02:28;9.02;;;3.65;;
61960;SDS011;47923;42.506;24.192;2023-07-13T12:04:57;10.77;;;3.88;;
61960;SDS011;47923;42.506;24.192;2023-07-13T12:07:27;9.18;;;3.55;;
61960;SDS011;47923;42.506;24.192;2023-07-13T12:09:54;7.68;;;3.38;;
61960;SDS011;47923;42.506;24.192;2023-07-13T12:12:28;6.73;;;3.80;;
61960;SDS011;47923;42.506;24.192;2023-07-13T12:14:55;9.23;;;4.03;;
61960;SDS011;47923;42.506;24.192;2023-07-13T12:17:21;9.15;;;4.05;;
61960;SDS011;47923;42.506;24.192;2023-07-13T12:19:49;8.55;;;4.00;;
61960;SDS011;47923;42.506;24.192;2023-07-13T12:22:16;10.88;;;4.63;;
61960;SDS011;47923;42.506;24.192;2023-07-13T12:24:43;16.77;;;4.50;;
61960;SDS011;47923;42.506;24.192;2023-07-13T12:27:16;13.23;;;4.53;;
61960;SDS011;47923;42.506;24.192;2023-07-13T12:29:59;7.80;;;3.80;;
61960;SDS011;47923;42.506;24.192;2023-07-13T12:32:28;9.60;;;4.10;;
61960;SDS011;47923;42.506;24.192;2023-07-13T12:35:17;9.50;;;3.58;;
61960;SDS011;47923;42.506;24.192;2023-07-13T12:37:44;8.20;;;4.00;;
61960;SDS011;47923;42.506;24.192;2023-07-13T12:40:17;9.38;;;4.32;;
61960;SDS011;47923;42.506;24.192;2023-07-13T12:42:56;9.25;;;4.03;;
61960;SDS011;47923;42.506;24.192;2023-07-13T12:45:25;9.32;;;3.92;;
61960;SDS011;47923;42.506;24.192;2023-07-13T12:48:10;10.15;;;3.80;;
61960;SDS011;47923;42.506;24.192;2023-07-13T12:59:36;12.45;;;4.03;;
61960;SDS011;47923;42.506;24.192;2023-07-13T13:02:29;9.43;;;3.40;;
61960;SDS011;47923;42.506;24.192;2023-07-13T13:05:18;12.05;;;3.47;;
61960;SDS011;47923;42.506;24.192;2023-07-13T13:10:27;11.32;;;4.00;;
61960;SDS011;47923;42.506;24.192;2023-07-13T13:12:52;10.98;;;4.03;;
61960;SDS011;47923;42.506;24.192;2023-07-13T13:15:18;8.85;;;4.15;;
61960;SDS011;47923;42.506;24.192;2023-07-13T13:17:44;8.57;;;3.83;;
61960;SDS011;47923;42.506;24.192;2023-07-13T13:20:17;10.98;;;4.32;;
61960;SDS011;47923;42.506;24.192;2023-07-13T13:22:44;11.50;;;4.35;;
61960;SDS011;47923;42.506;24.192;2023-07-13T13:25:14;11.13;;;4.30;;
61960;SDS011;47923;42.506;24.192;2023-07-13T13:27:40;10.52;;;4.35;;
61960;SDS011;47923;42.506;24.192;2023-07-13T13:32:38;11.07;;;4.13;;
61960;SDS011;47923;42.506;24.192;2023-07-13T13:38:04;9.30;;;3.90;;
61960;SDS011;47923;42.506;24.192;2023-07-13T13:40:45;10.60;;;4.78;;
61960;SDS011;47923;42.506;24.192;2023-07-13T13:43:21;9.38;;;3.97;;
61960;SDS011;47923;42.506;24.192;2023-07-13T13:45:58;10.15;;;4.43;;
61960;SDS011;47923;42.506;24.192;2023-07-13T13:48:53;14.18;;;4.93;;
61960;SDS011;47923;42.506;24.192;2023-07-13T13:51:24;14.52;;;4.40;;
61960;SDS011;47923;42.506;24.192;2023-07-13T13:53:50;16.10;;;4.40;;
61960;SDS011;47923;42.506;24.192;2023-07-13T13:56:26;15.45;;;5.30;;
61960;SDS011;47923;42.506;24.192;2023-07-13T13:59:00;17.55;;;15.75;;
61960;SDS011;47923;42.506;24.192;2023-07-13T14:01:34;10.75;;;6.95;;
61960;SDS011;47923;42.506;24.192;2023-07-13T14:04:20;9.93;;;4.22;;
61960;SDS011;47923;42.506;24.192;2023-07-13T14:06:55;13.65;;;5.22;;
61960;SDS011;47923;42.506;24.192;2023-07-13T14:09:28;11.98;;;5.07;;
61960;SDS011;47923;42.506;24.192;2023-07-13T14:11:58;11.38;;;4.95;;
61960;SDS011;47923;42.506;24.192;2023-07-13T14:14:32;15.87;;;5.03;;
61960;SDS011;47923;42.506;24.192;2023-07-13T14:17:23;13.75;;;4.80;;
61960;SDS011;47923;42.506;24.192;2023-07-13T14:19:58;12.03;;;5.10;;
61960;SDS011;47923;42.506;24.192;2023-07-13T14:22:25;10.88;;;4.50;;
61960;SDS011;47923;42.506;24.192;2023-07-13T14:25:21;12.77;;;4.72;;
61960;SDS011;47923;42.506;24.192;2023-07-13T14:27:55;11.82;;;5.18;;
61960;SDS011;47923;42.506;24.192;2023-07-13T14:30:32;15.73;;;5.10;;
61960;SDS011;47923;42.506;24.192;2023-07-13T14:33:01;11.50;;;4.63;;
61960;SDS011;47923;42.506;24.192;2023-07-13T14:35:36;10.52;;;4.53;;
61960;SDS011;47923;42.506;24.192;2023-07-13T14:38:15;10.77;;;5.13;;
61960;SDS011;47923;42.506;24.192;2023-07-13T14:40:53;10.93;;;4.63;;
61960;SDS011;47923;42.506;24.192;2023-07-13T14:43:29;10.52;;;5.10;;
61960;SDS011;47923;42.506;24.192;2023-07-13T14:45:55;15.70;;;5.47;;
61960;SDS011;47923;42.506;24.192;2023-07-13T14:48:40;11.48;;;4.70;;
61960;SDS011;47923;42.506;24.192;2023-07-13T14:51:18;11.75;;;4.72;;
61960;SDS011;47923;42.506;24.192;2023-07-13T14:53:46;11.68;;;5.40;;
61960;SDS011;47923;42.506;24.192;2023-07-13T14:56:14;8.63;;;4.60;;
61960;SDS011;47923;42.506;24.192;2023-07-13T14:59:09;8.82;;;4.28;;
61960;SDS011;47923;42.506;24.192;2023-07-13T15:01:40;8.70;;;4.30;;
61960;SDS011;47923;42.506;24.192;2023-07-13T15:04:17;9.52;;;5.18;;
61960;SDS011;47923;42.506;24.192;2023-07-13T15:12:51;11.48;;;5.35;;
61960;SDS011;47923;42.506;24.192;2023-07-13T15:15:51;12.05;;;5.07;;
61960;SDS011;47923;42.506;24.192;2023-07-13T15:18:36;12.27;;;5.70;;
61960;SDS011;47923;42.506;24.192;2023-07-13T15:21:09;11.30;;;4.93;;
61960;SDS011;47923;42.506;24.192;2023-07-13T15:23:39;10.35;;;4.70;;
61960;SDS011;47923;42.506;24.192;2023-07-13T15:26:12;9.68;;;4.85;;
61960;SDS011;47923;42.506;24.192;2023-07-13T15:28:44;9.43;;;4.40;;
61960;SDS011;47923;42.506;24.192;2023-07-13T15:31:22;10.48;;;4.70;;
61960;SDS011;47923;42.506;24.192;2023-07-13T15:34:03;11.05;;;5.03;;
61960;SDS011;47923;42.506;24.192;2023-07-13T15:36:44;9.15;;;4.72;;
61960;SDS011;47923;42.506;24.192;2023-07-13T15:39:18;14.27;;;5.18;;
61960;SDS011;47923;42.506;24.192;2023-07-13T15:41:46;13.75;;;5.20;;
61960;SDS011;47923;42.506;24.192;2023-07-13T15:44:28;9.50;;;4.80;;
61960;SDS011;47923;42.506;24.192;2023-07-13T15:47:03;11.27;;;5.18;;
61960;SDS011;47923;42.506;24.192;2023-07-13T15:49:29;11.25;;;5.10;;
61960;SDS011;47923;42.506;24.192;2023-07-13T15:52:02;10.27;;;5.28;;
61960;SDS011;47923;42.506;24.192;2023-07-13T15:55:01;9.57;;;5.40;;
61960;SDS011;47923;42.506;24.192;2023-07-13T15:57:32;13.30;;;5.47;;
61960;SDS011;47923;42.506;24.192;2023-07-13T16:00:09;16.02;;;5.63;;